sensor_id;sensor_type;location;lat;lon;timestamp;P1;P2;P0
69205;PMS7003;56319;48.920;2.332;2023-05-14T00:00:10;12.50;12.50;9.50
69205;PMS7003;56319;48.920;2.332;2023-05-14T00:02:37;12.75;12.25;9.25
69205;PMS7003;56319;48.920;2.332;2023-05-14T00:05:02;12.75;12.25;11.00
69205;PMS7003;56319;48.920;2.332;2023-05-14T00:07:28;11.25;11.25;9.75
69205;PMS7003;56319;48.920;2.332;2023-05-14T00:09:55;15.75;13.50;11.25
69205;PMS7003;56319;48.920;2.332;2023-05-14T00:12:21;11.25;11.00;9.25
69205;PMS7003;56319;48.920;2.332;2023-05-14T00:14:47;11.75;11.75;10.00
69205;PMS7003;56319;48.920;2.332;2023-05-14T00:17:12;15.75;10.50;9.75
69205;PMS7003;56319;48.920;2.332;2023-05-14T00:19:38;11.25;10.75;9.00
69205;PMS7003;56319;48.920;2.332;2023-05-14T00:22:07;12.00;12.00;10.50
69205;PMS7003;56319;48.920;2.332;2023-05-14T00:24:33;14.75;12.00;10.00
69205;PMS7003;56319;48.920;2.332;2023-05-14T00:26:59;15.00;13.00;11.25
69205;PMS7003;56319;48.920;2.332;2023-05-14T00:29:24;14.50;13.00;10.00
69205;PMS7003;56319;48.920;2.332;2023-05-14T00:31:50;12.50;12.50;11.00
69205;PMS7003;56319;48.920;2.332;2023-05-14T00:34:15;13.50;12.50;10.00
69205;PMS7003;56319;48.920;2.332;2023-05-14T00:36:41;15.25;13.50;10.25
69205;PMS7003;56319;48.920;2.332;2023-05-14T00:39:07;12.50;11.75;10.75
69205;PMS7003;56319;48.920;2.332;2023-05-14T00:41:32;14.75;14.25;10.75
69205;PMS7003;56319;48.920;2.332;2023-05-14T00:43:58;13.00;13.00;10.50
69205;PMS7003;56319;48.920;2.332;2023-05-14T00:46:23;16.00;13.25;9.25
69205;PMS7003;56319;48.920;2.332;2023-05-14T00:48:48;14.25;12.75;10.75
69205;PMS7003;56319;48.920;2.332;2023-05-14T00:51:14;13.25;12.25;10.75
69205;PMS7003;56319;48.920;2.332;2023-05-14T00:53:41;17.75;14.50;11.75
69205;PMS7003;56319;48.920;2.332;2023-05-14T00:56:06;16.00;16.00;12.75
69205;PMS7003;56319;48.920;2.332;2023-05-14T00:58:32;12.00;12.00;10.25
69205;PMS7003;56319;48.920;2.332;2023-05-14T01:00:58;12.00;12.00;9.75
69205;PMS7003;56319;48.920;2.332;2023-05-14T01:03:24;15.50;15.50;11.50
69205;PMS7003;56319;48.920;2.332;2023-05-14T01:08:57;16.25;16.25;11.25
69205;PMS7003;56319;48.920;2.332;2023-05-14T01:11:43;14.00;14.00;11.25
69205;PMS7003;56319;48.920;2.332;2023-05-14T01:14:37;16.25;16.25;12.50
69205;PMS7003;56319;48.920;2.332;2023-05-14T01:17:08;11.50;11.50;8.25
69205;PMS7003;56319;48.920;2.332;2023-05-14T01:19:39;10.50;9.50;9.00
69205;PMS7003;56319;48.920;2.332;2023-05-14T01:22:06;16.00;15.00;11.25
69205;PMS7003;56319;48.920;2.332;2023-05-14T01:24:32;15.50;15.00;12.75
69205;PMS7003;56319;48.920;2.332;2023-05-14T01:27:02;15.50;15.50;11.00
69205;PMS7003;56319;48.920;2.332;2023-05-14T01:29:33;14.75;14.75;11.00
69205;PMS7003;56319;48.920;2.332;2023-05-14T01:32:03;20.00;16.25;12.75
69205;PMS7003;56319;48.920;2.332;2023-05-14T01:34:34;15.25;12.50;10.75
69205;PMS7003;56319;48.920;2.332;2023-05-14T01:37:01;15.25;14.00;12.00
69205;PMS7003;56319;48.920;2.332;2023-05-14T01:39:28;16.50;16.50;13.50
69205;PMS7003;56319;48.920;2.332;2023-05-14T01:41:56;18.25;16.50;13.25
69205;PMS7003;56319;48.920;2.332;2023-05-14T01:44:21;16.25;15.25;12.50
69205;PMS7003;56319;48.920;2.332;2023-05-14T01:46:47;16.25;16.25;12.75
69205;PMS7003;56319;48.920;2.332;2023-05-14T01:49:13;9.25;8.75;5.00
69205;PMS7003;56319;48.920;2.332;2023-05-14T01:51:40;15.00;15.00;13.75
69205;PMS7003;56319;48.920;2.332;2023-05-14T01:54:05;17.75;17.00;14.00
69205;PMS7003;56319;48.920;2.332;2023-05-14T01:56:31;21.00;18.50;14.50
69205;PMS7003;56319;48.920;2.332;2023-05-14T01:58:56;14.50;13.25;11.50
69205;PMS7003;56319;48.920;2.332;2023-05-14T02:01:22;16.75;16.75;13.50
69205;PMS7003;56319;48.920;2.332;2023-05-14T02:03:47;18.00;17.00;13.75
69205;PMS7003;56319;48.920;2.332;2023-05-14T02:06:13;15.00;15.00;13.50
69205;PMS7003;56319;48.920;2.332;2023-05-14T02:08:38;18.25;18.25;14.75
69205;PMS7003;56319;48.920;2.332;2023-05-14T02:11:04;17.25;16.25;13.25
69205;PMS7003;56319;48.920;2.332;2023-05-14T02:13:29;21.00;19.50;16.00
69205;PMS7003;56319;48.920;2.332;2023-05-14T02:15:55;16.25;15.75;11.50
69205;PMS7003;56319;48.920;2.332;2023-05-14T02:18:20;20.75;19.25;15.00
69205;PMS7003;56319;48.920;2.332;2023-05-14T02:20:46;16.75;16.75;14.50
69205;PMS7003;56319;48.920;2.332;2023-05-14T02:23:13;17.75;17.75;13.50
69205;PMS7003;56319;48.920;2.332;2023-05-14T02:25:39;14.25;14.25;9.75
69205;PMS7003;56319;48.920;2.332;2023-05-14T02:28:04;16.50;16.50;14.25
69205;PMS7003;56319;48.920;2.332;2023-05-14T02:30:30;18.75;17.00;13.50
69205;PMS7003;56319;48.920;2.332;2023-05-14T02:32:56;17.25;16.00;13.25
69205;PMS7003;56319;48.920;2.332;2023-05-14T02:35:21;19.00;17.75;14.25
69205;PMS7003;56319;48.920;2.332;2023-05-14T02:37:47;19.00;18.75;15.50
69205;PMS7003;56319;48.920;2.332;2023-05-14T02:40:12;15.75;15.75;13.00
69205;PMS7003;56319;48.920;2.332;2023-05-14T02:42:38;20.75;18.75;14.50
69205;PMS7003;56319;48.920;2.332;2023-05-14T02:45:04;16.50;16.50;14.25
69205;PMS7003;56319;48.920;2.332;2023-05-14T02:47:30;20.00;18.75;14.25
69205;PMS7003;56319;48.920;2.332;2023-05-14T02:49:55;17.75;16.50;11.25
69205;PMS7003;56319;48.920;2.332;2023-05-14T02:52:21;19.00;19.00;15.25
69205;PMS7003;56319;48.920;2.332;2023-05-14T02:54:46;25.25;22.25;17.00
69205;PMS7003;56319;48.920;2.332;2023-05-14T02:57:12;23.00;20.75;16.75
69205;PMS7003;56319;48.920;2.332;2023-05-14T02:59:37;19.00;17.75;12.50
69205;PMS7003;56319;48.920;2.332;2023-05-14T03:02:03;21.00;18.50;14.50
69205;PMS7003;56319;48.920;2.332;2023-05-14T03:04:29;16.75;16.75;13.50
69205;PMS7003;56319;48.920;2.332;2023-05-14T03:06:54;19.50;19.25;16.00
69205;PMS7003;56319;48.920;2.332;2023-05-14T03:09:20;20.00;18.25;13.75
69205;PMS7003;56319;48.920;2.332;2023-05-14T03:11:45;20.75;19.50;15.50
69205;PMS7003;56319;48.920;2.332;2023-05-14T03:14:11;20.00;19.25;15.50
69205;PMS7003;56319;48.920;2.332;2023-05-14T03:16:36;20.50;19.75;16.00
69205;PMS7003;56319;48.920;2.332;2023-05-14T03:19:02;17.75;16.50;13.00
69205;PMS7003;56319;48.920;2.332;2023-05-14T03:21:27;22.00;21.25;15.75
69205;PMS7003;56319;48.920;2.332;2023-05-14T03:23:53;18.50;17.25;14.50
69205;PMS7003;56319;48.920;2.332;2023-05-14T03:26:18;19.00;17.50;15.25
69205;PMS7003;56319;48.920;2.332;2023-05-14T03:28:45;16.00;16.00;13.75
69205;PMS7003;56319;48.920;2.332;2023-05-14T03:31:11;22.75;19.50;15.50
69205;PMS7003;56319;48.920;2.332;2023-05-14T03:33:36;18.00;17.25;14.25
69205;PMS7003;56319;48.920;2.332;2023-05-14T03:36:02;25.25;20.25;16.50
69205;PMS7003;56319;48.920;2.332;2023-05-14T03:38:27;23.25;19.25;15.75
69205;PMS7003;56319;48.920;2.332;2023-05-14T03:40:53;21.75;20.00;15.75
69205;PMS7003;56319;48.920;2.332;2023-05-14T03:43:18;22.75;20.25;17.25
69205;PMS7003;56319;48.920;2.332;2023-05-14T03:45:44;21.00;19.00;16.75
69205;PMS7003;56319;48.920;2.332;2023-05-14T03:48:09;24.75;22.75;18.25
69205;PMS7003;56319;48.920;2.332;2023-05-14T03:50:35;24.25;19.50;16.25
69205;PMS7003;56319;48.920;2.332;2023-05-14T03:53:00;19.50;18.50;15.00
69205;PMS7003;56319;48.920;2.332;2023-05-14T03:55:26;18.50;18.50;15.25
69205;PMS7003;56319;48.920;2.332;2023-05-14T03:57:51;23.25;18.75;14.75
69205;PMS7003;56319;48.920;2.332;2023-05-14T04:00:17;19.75;19.50;15.25
69205;PMS7003;56319;48.920;2.332;2023-05-14T04:02:43;22.75;21.00;16.25
69205;PMS7003;56319;48.920;2.332;2023-05-14T04:05:08;22.00;19.00;14.50
69205;PMS7003;56319;48.920;2.332;2023-05-14T04:07:34;20.00;20.00;15.50
69205;PMS7003;56319;48.920;2.332;2023-05-14T04:10:00;20.00;18.50;15.50
69205;PMS7003;56319;48.920;2.332;2023-05-14T04:12:26;19.00;18.00;15.00
69205;PMS7003;56319;48.920;2.332;2023-05-14T04:14:52;18.00;18.00;12.25
69205;PMS7003;56319;48.920;2.332;2023-05-14T04:17:17;20.75;20.25;16.00
69205;PMS7003;56319;48.920;2.332;2023-05-14T04:19:43;19.00;19.00;15.50
69205;PMS7003;56319;48.920;2.332;2023-05-14T04:22:08;21.50;20.00;15.75
69205;PMS7003;56319;48.920;2.332;2023-05-14T04:24:34;23.75;21.00;16.75
69205;PMS7003;56319;48.920;2.332;2023-05-14T04:26:59;20.25;19.25;16.75
69205;PMS7003;56319;48.920;2.332;2023-05-14T04:29:25;21.25;19.75;15.25
69205;PMS7003;56319;48.920;2.332;2023-05-14T04:31:50;18.50;17.25;12.75
69205;PMS7003;56319;48.920;2.332;2023-05-14T04:34:16;21.00;18.75;14.75
69205;PMS7003;56319;48.920;2.332;2023-05-14T04:36:41;22.50;21.00;16.50
69205;PMS7003;56319;48.920;2.332;2023-05-14T04:39:07;19.25;18.00;14.25
69205;PMS7003;56319;48.920;2.332;2023-05-14T04:41:34;23.75;19.25;15.75
69205;PMS7003;56319;48.920;2.332;2023-05-14T04:43:59;22.75;22.50;17.00
69205;PMS7003;56319;48.920;2.332;2023-05-14T04:46:27;23.00;19.25;15.00
69205;PMS7003;56319;48.920;2.332;2023-05-14T04:48:53;22.75;21.75;16.25
69205;PMS7003;56319;48.920;2.332;2023-05-14T04:51:18;20.00;18.50;14.25
69205;PMS7003;56319;48.920;2.332;2023-05-14T04:53:44;19.50;19.50;15.00
69205;PMS7003;56319;48.920;2.332;2023-05-14T04:56:09;18.00;18.00;14.00
69205;PMS7003;56319;48.920;2.332;2023-05-14T04:58:35;20.25;20.25;15.75
69205;PMS7003;56319;48.920;2.332;2023-05-14T05:01:01;23.25;20.50;16.50
69205;PMS7003;56319;48.920;2.332;2023-05-14T05:03:29;20.50;19.25;16.25
69205;PMS7003;56319;48.920;2.332;2023-05-14T05:05:55;19.50;19.00;13.50
69205;PMS7003;56319;48.920;2.332;2023-05-14T05:08:20;20.75;18.50;15.25
69205;PMS7003;56319;48.920;2.332;2023-05-14T05:10:46;22.00;21.75;16.75
69205;PMS7003;56319;48.920;2.332;2023-05-14T05:13:11;20.75;20.50;16.00
69205;PMS7003;56319;48.920;2.332;2023-05-14T05:15:37;20.00;18.25;13.00
69205;PMS7003;56319;48.920;2.332;2023-05-14T05:18:02;17.50;16.00;13.50
69205;PMS7003;56319;48.920;2.332;2023-05-14T05:20:28;20.25;19.25;16.00
69205;PMS7003;56319;48.920;2.332;2023-05-14T05:22:53;20.50;20.50;15.75
69205;PMS7003;56319;48.920;2.332;2023-05-14T05:25:19;23.00;20.00;15.75
69205;PMS7003;56319;48.920;2.332;2023-05-14T05:27:44;20.75;18.50;14.75
69205;PMS7003;56319;48.920;2.332;2023-05-14T05:30:10;21.00;19.25;14.75
69205;PMS7003;56319;48.920;2.332;2023-05-14T05:32:36;22.25;21.25;17.00
69205;PMS7003;56319;48.920;2.332;2023-05-14T05:35:02;22.75;19.75;15.75
69205;PMS7003;56319;48.920;2.332;2023-05-14T05:37:27;21.25;20.50;15.75
69205;PMS7003;56319;48.920;2.332;2023-05-14T05:39:54;20.50;18.50;14.00
69205;PMS7003;56319;48.920;2.332;2023-05-14T05:42:19;19.50;18.75;15.50
69205;PMS7003;56319;48.920;2.332;2023-05-14T05:44:45;18.75;17.50;14.00
69205;PMS7003;56319;48.920;2.332;2023-05-14T05:47:10;21.75;21.75;15.75
69205;PMS7003;56319;48.920;2.332;2023-05-14T05:49:36;18.50;18.00;13.75
69205;PMS7003;56319;48.920;2.332;2023-05-14T05:52:02;18.75;18.25;15.25
69205;PMS7003;56319;48.920;2.332;2023-05-14T05:54:29;19.00;19.00;14.75
69205;PMS7003;56319;48.920;2.332;2023-05-14T05:56:56;23.25;19.50;15.75
69205;PMS7003;56319;48.920;2.332;2023-05-14T05:59:22;20.50;18.50;15.25
69205;PMS7003;56319;48.920;2.332;2023-05-14T06:01:48;21.25;18.75;15.25
69205;PMS7003;56319;48.920;2.332;2023-05-14T06:04:14;20.00;20.00;15.00
69205;PMS7003;56319;48.920;2.332;2023-05-14T06:06:40;19.50;17.75;15.00
69205;PMS7003;56319;48.920;2.332;2023-05-14T06:09:05;18.75;17.50;13.50
69205;PMS7003;56319;48.920;2.332;2023-05-14T06:11:33;20.50;19.25;14.25
69205;PMS7003;56319;48.920;2.332;2023-05-14T06:13:58;17.25;17.25;13.00
69205;PMS7003;56319;48.920;2.332;2023-05-14T06:16:24;21.75;17.50;13.75
69205;PMS7003;56319;48.920;2.332;2023-05-14T06:18:49;21.25;21.25;15.50
69205;PMS7003;56319;48.920;2.332;2023-05-14T06:21:16;18.25;18.25;13.25
69205;PMS7003;56319;48.920;2.332;2023-05-14T06:23:43;17.25;16.75;12.50
69205;PMS7003;56319;48.920;2.332;2023-05-14T06:26:08;18.25;17.50;13.50
69205;PMS7003;56319;48.920;2.332;2023-05-14T06:28:34;15.75;15.75;12.25
69205;PMS7003;56319;48.920;2.332;2023-05-14T06:30:59;23.75;16.25;12.00
69205;PMS7003;56319;48.920;2.332;2023-05-14T06:33:25;17.75;17.75;14.50
69205;PMS7003;56319;48.920;2.332;2023-05-14T06:35:55;24.00;22.00;16.25
69205;PMS7003;56319;48.920;2.332;2023-05-14T06:38:22;21.00;20.75;14.25
69205;PMS7003;56319;48.920;2.332;2023-05-14T06:40:48;19.00;17.25;13.75
69205;PMS7003;56319;48.920;2.332;2023-05-14T06:43:13;17.75;16.50;13.25
69205;PMS7003;56319;48.920;2.332;2023-05-14T06:45:38;22.25;20.00;16.00
69205;PMS7003;56319;48.920;2.332;2023-05-14T06:48:04;17.25;15.75;13.25
69205;PMS7003;56319;48.920;2.332;2023-05-14T06:50:29;18.75;18.75;15.25
69205;PMS7003;56319;48.920;2.332;2023-05-14T06:52:55;19.75;18.25;12.75
69205;PMS7003;56319;48.920;2.332;2023-05-14T06:55:21;21.00;17.75;14.00
69205;PMS7003;56319;48.920;2.332;2023-05-14T06:57:46;17.25;17.25;12.75
69205;PMS7003;56319;48.920;2.332;2023-05-14T07:00:12;20.25;18.50;14.00
69205;PMS7003;56319;48.920;2.332;2023-05-14T07:02:38;19.25;19.25;15.50
69205;PMS7003;56319;48.920;2.332;2023-05-14T07:05:04;24.50;19.00;14.25
69205;PMS7003;56319;48.920;2.332;2023-05-14T07:07:30;18.75;18.75;15.00
69205;PMS7003;56319;48.920;2.332;2023-05-14T07:09:55;19.00;17.50;12.75
69205;PMS7003;56319;48.920;2.332;2023-05-14T07:12:21;18.00;18.00;13.25
69205;PMS7003;56319;48.920;2.332;2023-05-14T07:14:46;17.75;17.00;13.25
69205;PMS7003;56319;48.920;2.332;2023-05-14T07:17:12;17.50;17.25;13.00
69205;PMS7003;56319;48.920;2.332;2023-05-14T07:19:37;19.25;18.50;14.25
69205;PMS7003;56319;48.920;2.332;2023-05-14T07:22:03;19.25;17.50;14.50
69205;PMS7003;56319;48.920;2.332;2023-05-14T07:24:28;19.25;19.00;15.00
69205;PMS7003;56319;48.920;2.332;2023-05-14T07:26:54;21.50;18.75;14.00
69205;PMS7003;56319;48.920;2.332;2023-05-14T07:29:21;24.25;20.75;14.50
69205;PMS7003;56319;48.920;2.332;2023-05-14T07:31:47;17.25;17.25;11.50
69205;PMS7003;56319;48.920;2.332;2023-05-14T07:34:12;22.50;20.25;16.75
69205;PMS7003;56319;48.920;2.332;2023-05-14T07:36:38;11.00;11.00;5.25
69205;PMS7003;56319;48.920;2.332;2023-05-14T07:39:04;21.50;20.75;14.00
69205;PMS7003;56319;48.920;2.332;2023-05-14T07:41:29;21.75;19.75;13.75
69205;PMS7003;56319;48.920;2.332;2023-05-14T07:43:55;20.75;18.00;13.75
69205;PMS7003;56319;48.920;2.332;2023-05-14T07:46:20;20.50;20.00;14.25
69205;PMS7003;56319;48.920;2.332;2023-05-14T07:48:46;18.75;18.25;13.75
69205;PMS7003;56319;48.920;2.332;2023-05-14T07:51:11;20.00;19.25;13.75
69205;PMS7003;56319;48.920;2.332;2023-05-14T07:53:37;20.50;19.25;14.50
69205;PMS7003;56319;48.920;2.332;2023-05-14T07:56:02;21.00;18.50;15.25
69205;PMS7003;56319;48.920;2.332;2023-05-14T07:58:28;15.75;15.25;10.50
69205;PMS7003;56319;48.920;2.332;2023-05-14T08:00:54;17.25;16.50;11.75
69205;PMS7003;56319;48.920;2.332;2023-05-14T08:03:20;19.50;17.75;12.75
69205;PMS7003;56319;48.920;2.332;2023-05-14T08:05:46;18.25;18.25;14.00
69205;PMS7003;56319;48.920;2.332;2023-05-14T08:08:12;20.00;18.00;13.75
69205;PMS7003;56319;48.920;2.332;2023-05-14T08:10:37;22.75;18.75;15.25
69205;PMS7003;56319;48.920;2.332;2023-05-14T08:13:03;20.50;18.75;14.00
69205;PMS7003;56319;48.920;2.332;2023-05-14T08:15:29;19.50;18.50;14.00
69205;PMS7003;56319;48.920;2.332;2023-05-14T08:17:54;19.25;18.50;14.50
69205;PMS7003;56319;48.920;2.332;2023-05-14T08:20:20;19.25;18.00;13.75
69205;PMS7003;56319;48.920;2.332;2023-05-14T08:22:46;17.25;17.00;13.75
69205;PMS7003;56319;48.920;2.332;2023-05-14T08:25:11;23.25;19.00;15.25
69205;PMS7003;56319;48.920;2.332;2023-05-14T08:27:37;22.00;19.50;13.75
69205;PMS7003;56319;48.920;2.332;2023-05-14T08:30:03;19.00;17.25;13.50
69205;PMS7003;56319;48.920;2.332;2023-05-14T08:32:30;23.00;21.25;14.75
69205;PMS7003;56319;48.920;2.332;2023-05-14T08:34:55;19.75;18.75;12.25
69205;PMS7003;56319;48.920;2.332;2023-05-14T08:37:21;18.50;17.00;13.50
69205;PMS7003;56319;48.920;2.332;2023-05-14T08:39:46;19.25;18.25;14.25
69205;PMS7003;56319;48.920;2.332;2023-05-14T08:42:13;23.25;18.00;15.00
69205;PMS7003;56319;48.920;2.332;2023-05-14T08:44:45;17.75;17.75;14.25
69205;PMS7003;56319;48.920;2.332;2023-05-14T08:47:14;20.75;17.75;13.75
69205;PMS7003;56319;48.920;2.332;2023-05-14T08:49:43;19.25;18.00;12.25
69205;PMS7003;56319;48.920;2.332;2023-05-14T08:52:11;23.75;21.25;16.25
69205;PMS7003;56319;48.920;2.332;2023-05-14T08:54:37;21.00;19.75;14.25
69205;PMS7003;56319;48.920;2.332;2023-05-14T08:57:04;18.75;18.75;13.00
69205;PMS7003;56319;48.920;2.332;2023-05-14T08:59:32;21.00;20.50;12.75
69205;PMS7003;56319;48.920;2.332;2023-05-14T09:01:59;21.50;18.50;13.75
69205;PMS7003;56319;48.920;2.332;2023-05-14T09:04:26;21.00;20.00;14.00
69205;PMS7003;56319;48.920;2.332;2023-05-14T09:06:53;21.75;19.50;13.75
69205;PMS7003;56319;48.920;2.332;2023-05-14T09:09:20;27.00;20.50;16.25
69205;PMS7003;56319;48.920;2.332;2023-05-14T09:11:47;22.50;21.25;14.75
69205;PMS7003;56319;48.920;2.332;2023-05-14T09:14:13;22.00;20.00;14.75
69205;PMS7003;56319;48.920;2.332;2023-05-14T09:16:40;20.00;18.50;14.50
69205;PMS7003;56319;48.920;2.332;2023-05-14T09:19:10;22.50;20.50;15.50
69205;PMS7003;56319;48.920;2.332;2023-05-14T09:21:37;21.50;21.00;14.75
69205;PMS7003;56319;48.920;2.332;2023-05-14T09:24:02;22.50;19.50;14.25
69205;PMS7003;56319;48.920;2.332;2023-05-14T09:26:30;26.00;21.50;15.50
69205;PMS7003;56319;48.920;2.332;2023-05-14T09:28:56;21.00;19.75;15.00
69205;PMS7003;56319;48.920;2.332;2023-05-14T09:31:26;20.25;19.50;15.00
69205;PMS7003;56319;48.920;2.332;2023-05-14T09:33:53;18.50;18.25;14.50
69205;PMS7003;56319;48.920;2.332;2023-05-14T09:36:18;21.00;20.25;15.50
69205;PMS7003;56319;48.920;2.332;2023-05-14T09:38:44;18.75;17.00;13.25
69205;PMS7003;56319;48.920;2.332;2023-05-14T09:41:10;22.75;20.50;15.50
69205;PMS7003;56319;48.920;2.332;2023-05-14T09:43:36;21.75;21.00;15.50
69205;PMS7003;56319;48.920;2.332;2023-05-14T09:46:01;19.25;19.00;14.25
69205;PMS7003;56319;48.920;2.332;2023-05-14T09:48:27;24.25;21.00;15.00
69205;PMS7003;56319;48.920;2.332;2023-05-14T09:50:53;19.75;19.25;13.75
69205;PMS7003;56319;48.920;2.332;2023-05-14T09:53:19;23.00;20.50;15.25
69205;PMS7003;56319;48.920;2.332;2023-05-14T09:55:45;23.00;21.50;14.25
69205;PMS7003;56319;48.920;2.332;2023-05-14T09:58:11;21.75;20.50;16.25
69205;PMS7003;56319;48.920;2.332;2023-05-14T10:00:38;20.50;19.25;13.00
69205;PMS7003;56319;48.920;2.332;2023-05-14T10:03:07;24.50;22.50;15.50
69205;PMS7003;56319;48.920;2.332;2023-05-14T10:05:34;21.75;20.00;13.50
69205;PMS7003;56319;48.920;2.332;2023-05-14T10:08:02;20.00;19.75;14.75
69205;PMS7003;56319;48.920;2.332;2023-05-14T10:10:33;24.50;23.25;15.25
69205;PMS7003;56319;48.920;2.332;2023-05-14T10:13:02;21.00;19.50;14.50
69205;PMS7003;56319;48.920;2.332;2023-05-14T10:15:32;21.00;20.25;15.00
69205;PMS7003;56319;48.920;2.332;2023-05-14T10:18:02;20.25;19.50;13.00
69205;PMS7003;56319;48.920;2.332;2023-05-14T10:20:33;22.50;20.75;16.00
69205;PMS7003;56319;48.920;2.332;2023-05-14T10:23:00;24.00;22.00;15.00
69205;PMS7003;56319;48.920;2.332;2023-05-14T10:25:26;23.50;23.50;17.50
69205;PMS7003;56319;48.920;2.332;2023-05-14T10:27:52;24.00;21.00;16.00
69205;PMS7003;56319;48.920;2.332;2023-05-14T10:30:19;20.25;18.50;14.50
69205;PMS7003;56319;48.920;2.332;2023-05-14T10:32:47;21.50;19.50;14.00
69205;PMS7003;56319;48.920;2.332;2023-05-14T10:35:16;24.50;19.25;16.00
69205;PMS7003;56319;48.920;2.332;2023-05-14T10:37:44;20.00;19.00;14.75
69205;PMS7003;56319;48.920;2.332;2023-05-14T10:40:11;22.50;21.25;16.25
69205;PMS7003;56319;48.920;2.332;2023-05-14T10:42:37;19.75;19.75;14.50
69205;PMS7003;56319;48.920;2.332;2023-05-14T10:45:06;22.75;22.00;16.25
69205;PMS7003;56319;48.920;2.332;2023-05-14T10:47:34;21.50;20.00;14.50
69205;PMS7003;56319;48.920;2.332;2023-05-14T10:50:03;21.75;19.25;14.50
69205;PMS7003;56319;48.920;2.332;2023-05-14T10:52:30;22.75;20.25;14.25
69205;PMS7003;56319;48.920;2.332;2023-05-14T10:54:56;23.25;19.25;14.75
69205;PMS7003;56319;48.920;2.332;2023-05-14T10:57:25;23.75;20.25;14.00
69205;PMS7003;56319;48.920;2.332;2023-05-14T10:59:54;19.50;18.25;14.00
69205;PMS7003;56319;48.920;2.332;2023-05-14T11:02:22;19.00;19.00;13.50
69205;PMS7003;56319;48.920;2.332;2023-05-14T11:04:53;24.00;20.50;14.50
69205;PMS7003;56319;48.920;2.332;2023-05-14T11:07:26;21.50;20.00;15.25
69205;PMS7003;56319;48.920;2.332;2023-05-14T11:09:58;21.00;21.00;13.75
69205;PMS7003;56319;48.920;2.332;2023-05-14T11:12:26;23.75;21.50;15.75
69205;PMS7003;56319;48.920;2.332;2023-05-14T11:14:52;19.75;19.75;15.50
69205;PMS7003;56319;48.920;2.332;2023-05-14T11:17:18;21.75;19.75;16.00
69205;PMS7003;56319;48.920;2.332;2023-05-14T11:19:44;20.67;18.33;14.67
69205;PMS7003;56319;48.920;2.332;2023-05-14T11:22:10;21.75;18.75;14.50
69205;PMS7003;56319;48.920;2.332;2023-05-14T11:24:38;17.00;16.50;13.50
69205;PMS7003;56319;48.920;2.332;2023-05-14T11:27:06;21.50;20.75;15.00
69205;PMS7003;56319;48.920;2.332;2023-05-14T11:29:33;21.50;19.50;14.50
69205;PMS7003;56319;48.920;2.332;2023-05-14T11:32:01;19.00;19.00;13.50
69205;PMS7003;56319;48.920;2.332;2023-05-14T11:34:29;19.25;18.50;12.50
69205;PMS7003;56319;48.920;2.332;2023-05-14T11:36:55;22.75;19.25;14.50
69205;PMS7003;56319;48.920;2.332;2023-05-14T11:39:20;19.75;19.00;14.75
69205;PMS7003;56319;48.920;2.332;2023-05-14T11:41:46;23.25;21.50;15.00
69205;PMS7003;56319;48.920;2.332;2023-05-14T11:44:11;23.25;19.25;12.75
69205;PMS7003;56319;48.920;2.332;2023-05-14T11:46:37;18.50;17.00;13.00
69205;PMS7003;56319;48.920;2.332;2023-05-14T11:49:03;23.25;19.00;14.50
69205;PMS7003;56319;48.920;2.332;2023-05-14T11:51:29;20.75;19.00;14.25
69205;PMS7003;56319;48.920;2.332;2023-05-14T11:53:54;19.75;18.50;14.25
69205;PMS7003;56319;48.920;2.332;2023-05-14T11:56:20;20.25;18.00;13.50
69205;PMS7003;56319;48.920;2.332;2023-05-14T11:58:47;21.00;20.00;14.75
69205;PMS7003;56319;48.920;2.332;2023-05-14T12:01:13;19.50;19.50;13.75
69205;PMS7003;56319;48.920;2.332;2023-05-14T12:03:40;22.25;20.75;15.25
69205;PMS7003;56319;48.920;2.332;2023-05-14T12:06:06;17.50;16.50;15.25
69205;PMS7003;56319;48.920;2.332;2023-05-14T12:08:33;19.75;17.50;13.75
69205;PMS7003;56319;48.920;2.332;2023-05-14T12:10:59;13.00;13.00;9.00
69205;PMS7003;56319;48.920;2.332;2023-05-14T12:13:25;24.50;21.50;15.75
69205;PMS7003;56319;48.920;2.332;2023-05-14T12:15:53;20.25;19.25;14.00
69205;PMS7003;56319;48.920;2.332;2023-05-14T12:18:23;21.00;20.00;14.75
69205;PMS7003;56319;48.920;2.332;2023-05-14T12:20:49;18.50;18.50;13.00
69205;PMS7003;56319;48.920;2.332;2023-05-14T12:23:16;22.25;19.25;14.25
69205;PMS7003;56319;48.920;2.332;2023-05-14T12:25:50;18.50;18.00;14.00
69205;PMS7003;56319;48.920;2.332;2023-05-14T12:28:16;23.00;20.50;16.75
69205;PMS7003;56319;48.920;2.332;2023-05-14T12:30:42;20.00;18.25;14.25
69205;PMS7003;56319;48.920;2.332;2023-05-14T12:33:07;19.75;18.25;14.00
69205;PMS7003;56319;48.920;2.332;2023-05-14T12:35:33;19.00;17.50;13.25
69205;PMS7003;56319;48.920;2.332;2023-05-14T12:38:01;24.75;20.00;15.50
69205;PMS7003;56319;48.920;2.332;2023-05-14T12:40:27;18.75;18.75;14.00
69205;PMS7003;56319;48.920;2.332;2023-05-14T12:42:52;19.50;18.25;12.75
69205;PMS7003;56319;48.920;2.332;2023-05-14T12:45:17;19.00;16.25;13.00
69205;PMS7003;56319;48.920;2.332;2023-05-14T12:47:43;19.25;17.50;13.50
69205;PMS7003;56319;48.920;2.332;2023-05-14T12:50:09;18.50;16.75;13.00
69205;PMS7003;56319;48.920;2.332;2023-05-14T12:52:35;19.00;15.75;12.75
69205;PMS7003;56319;48.920;2.332;2023-05-14T12:55:00;18.75;18.50;12.75
69205;PMS7003;56319;48.920;2.332;2023-05-14T12:57:26;16.25;16.25;13.00
69205;PMS7003;56319;48.920;2.332;2023-05-14T12:59:52;18.33;16.33;12.00
69205;PMS7003;56319;48.920;2.332;2023-05-14T13:02:19;20.00;18.75;12.25
69205;PMS7003;56319;48.920;2.332;2023-05-14T13:04:44;20.25;19.00;14.50
69205;PMS7003;56319;48.920;2.332;2023-05-14T13:07:10;15.25;14.50;11.50
69205;PMS7003;56319;48.920;2.332;2023-05-14T13:09:35;19.00;18.00;13.25
69205;PMS7003;56319;48.920;2.332;2023-05-14T13:12:00;16.75;12.50;9.25
69205;PMS7003;56319;48.920;2.332;2023-05-14T13:14:26;16.75;16.75;13.25
69205;PMS7003;56319;48.920;2.332;2023-05-14T13:16:51;17.75;15.25;11.25
69205;PMS7003;56319;48.920;2.332;2023-05-14T13:19:17;14.50;13.00;10.25
69205;PMS7003;56319;48.920;2.332;2023-05-14T13:21:42;16.00;14.75;11.50
69205;PMS7003;56319;48.920;2.332;2023-05-14T13:24:08;16.75;15.00;12.00
69205;PMS7003;56319;48.920;2.332;2023-05-14T13:26:35;13.75;13.75;11.25
69205;PMS7003;56319;48.920;2.332;2023-05-14T13:29:01;24.00;19.00;13.25
69205;PMS7003;56319;48.920;2.332;2023-05-14T13:31:27;18.25;17.50;13.00
69205;PMS7003;56319;48.920;2.332;2023-05-14T13:33:52;13.50;13.50;10.50
69205;PMS7003;56319;48.920;2.332;2023-05-14T13:36:18;17.75;16.25;11.75
69205;PMS7003;56319;48.920;2.332;2023-05-14T13:38:43;17.00;16.00;12.00
69205;PMS7003;56319;48.920;2.332;2023-05-14T13:41:10;20.00;16.75;12.00
69205;PMS7003;56319;48.920;2.332;2023-05-14T13:43:36;19.75;15.75;10.25